Pagrindinis puslapis
METAR-TAF:

METAR-TAF

Oro uostai :

Antofagasta, Čilė

platuma: 23-26S, ilguma: 070-26W, Aukštis: 135 m

Dabartinis oras

Ataskaita buvo paskelbta 1 valandą ir 10 minutes, ne 21:00 UTC
Vėjas 11 kt iš Pietų
Temperatūra 19°C
Drėgmė 68%
Slėgis 1012 hPa
Matomumas 10 km arba daugiau
Mažai debesys ne aukštis 1800 ft

METAR: SCFA 122100Z 18011KT 9999 FEW018 19/13 Q1012 NOSIG

Laikas: 19:10 (22:10 UTC)

Prognozė

Ataskaita buvo paskelbta 5 valandos ir 57 minutes, ne 16:13 UTC
Prognozė galioja nuo 12 metu 18 UTC su 13 metu 18 UTC
Vėjas 12 kt iš Pietvakarių
Matomumas 10 km arba daugiau
Mažai debesys ne aukštis 1700 ft
Tapsmas
nuo 12 metu 23 UTC su 13 metu 01 UTC
Vėjas 4 kt iš Pietų
Su prošvaistėmis ne aukštis 2000 ft
Tapsmas
nuo 13 metu 04 UTC su 13 metu 06 UTC
Vėjas 8 kt iš Šiaurės
Tapsmas
nuo 13 metu 14 UTC su 13 metu 16 UTC
Vėjas 13 kt iš Pietvakarių
Mažai debesys ne aukštis 2000 ft

TAF: SCFA 121613Z 1218/1318 22012KT 9999 FEW017 TX20/1318Z TN17/1310Z BECMG 1223/1301 18004KT BKN020 BECMG 1304/1306 36008KT BECMG 1314/1316 22013KT FEW020

Orai ataskaitas ir orų prognozės (METAR, TAF).

turimą stotys yra geltonos ir raudonos taškus žemėlapyje.

Perkelti pele per norėdami pamatyti stoties vardą.

Tada spustelėkite, norėdami matyti oro stebėjimo ir prognozės.

Norėdami pakeisti žemėlapį: spustelėkite ant žalios mygtukų su juodo kryžiaus žemyn,; žalią mygtuką su brūkšneliu, jei norite nutolinti; arba žalių rodyklių gretimoms žemėlapius.


METAR-TAF: